sensor_id;sensor_type;location;lat;lon;timestamp;P1;durP1;ratioP1;P2;durP2;ratioP2
36185;SDS011;22228;53.222;7.446;2022-11-27T00:00:58;27.13;;;14.00;;
36185;SDS011;22228;53.222;7.446;2022-11-27T00:03:19;23.27;;;13.63;;
36185;SDS011;22228;53.222;7.446;2022-11-27T00:05:39;33.90;;;15.77;;
36185;SDS011;22228;53.222;7.446;2022-11-27T00:08:00;29.40;;;15.47;;
36185;SDS011;22228;53.222;7.446;2022-11-27T00:10:20;33.03;;;14.50;;
36185;SDS011;22228;53.222;7.446;2022-11-27T00:12:40;25.63;;;13.93;;
36185;SDS011;22228;53.222;7.446;2022-11-27T00:15:01;31.63;;;15.20;;
36185;SDS011;22228;53.222;7.446;2022-11-27T00:17:23;34.57;;;14.70;;
36185;SDS011;22228;53.222;7.446;2022-11-27T00:19:43;32.40;;;13.43;;
36185;SDS011;22228;53.222;7.446;2022-11-27T00:22:04;33.07;;;14.10;;
36185;SDS011;22228;53.222;7.446;2022-11-27T00:24:24;24.70;;;13.73;;
36185;SDS011;22228;53.222;7.446;2022-11-27T00:26:45;29.50;;;12.77;;
36185;SDS011;22228;53.222;7.446;2022-11-27T00:29:07;36.93;;;14.67;;
36185;SDS011;22228;53.222;7.446;2022-11-27T00:31:29;26.97;;;12.57;;
36185;SDS011;22228;53.222;7.446;2022-11-27T00:33:53;25.83;;;12.37;;
36185;SDS011;22228;53.222;7.446;2022-11-27T00:36:15;27.73;;;13.17;;
36185;SDS011;22228;53.222;7.446;2022-11-27T00:38:35;28.47;;;13.57;;
36185;SDS011;22228;53.222;7.446;2022-11-27T00:40:57;25.60;;;13.10;;
36185;SDS011;22228;53.222;7.446;2022-11-27T00:43:18;29.30;;;12.73;;
36185;SDS011;22228;53.222;7.446;2022-11-27T00:45:39;22.87;;;12.73;;
36185;SDS011;22228;53.222;7.446;2022-11-27T00:47:59;23.57;;;12.13;;
36185;SDS011;22228;53.222;7.446;2022-11-27T00:50:21;24.87;;;12.17;;
36185;SDS011;22228;53.222;7.446;2022-11-27T00:52:42;31.20;;;12.40;;
36185;SDS011;22228;53.222;7.446;2022-11-27T00:55:03;23.97;;;12.40;;
36185;SDS011;22228;53.222;7.446;2022-11-27T00:57:23;21.60;;;11.40;;
36185;SDS011;22228;53.222;7.446;2022-11-27T00:59:44;24.67;;;12.03;;
36185;SDS011;22228;53.222;7.446;2022-11-27T01:02:04;26.13;;;11.80;;
36185;SDS011;22228;53.222;7.446;2022-11-27T01:04:25;25.10;;;12.53;;
36185;SDS011;22228;53.222;7.446;2022-11-27T01:06:47;21.30;;;11.00;;
36185;SDS011;22228;53.222;7.446;2022-11-27T01:09:08;25.43;;;11.27;;
36185;SDS011;22228;53.222;7.446;2022-11-27T01:11:30;19.63;;;11.10;;
36185;SDS011;22228;53.222;7.446;2022-11-27T01:13:52;23.43;;;11.13;;
36185;SDS011;22228;53.222;7.446;2022-11-27T01:16:14;24.00;;;11.70;;
36185;SDS011;22228;53.222;7.446;2022-11-27T01:18:36;19.43;;;10.90;;
36185;SDS011;22228;53.222;7.446;2022-11-27T01:20:59;18.70;;;11.00;;
36185;SDS011;22228;53.222;7.446;2022-11-27T01:23:21;21.73;;;10.80;;
36185;SDS011;22228;53.222;7.446;2022-11-27T01:25:42;20.00;;;10.77;;
36185;SDS011;22228;53.222;7.446;2022-11-27T01:28:02;23.97;;;10.77;;
36185;SDS011;22228;53.222;7.446;2022-11-27T01:30:23;26.50;;;11.13;;
36185;SDS011;22228;53.222;7.446;2022-11-27T01:32:44;23.10;;;11.00;;
36185;SDS011;22228;53.222;7.446;2022-11-27T01:35:05;19.73;;;10.07;;
36185;SDS011;22228;53.222;7.446;2022-11-27T01:37:26;21.10;;;10.30;;
36185;SDS011;22228;53.222;7.446;2022-11-27T01:39:48;20.00;;;10.13;;
36185;SDS011;22228;53.222;7.446;2022-11-27T01:42:08;22.97;;;11.13;;
36185;SDS011;22228;53.222;7.446;2022-11-27T01:44:45;20.10;;;9.60;;
36185;SDS011;22228;53.222;7.446;2022-11-27T01:47:14;23.37;;;10.67;;
36185;SDS011;22228;53.222;7.446;2022-11-27T01:49:38;16.93;;;9.70;;
36185;SDS011;22228;53.222;7.446;2022-11-27T01:52:02;16.23;;;10.07;;
36185;SDS011;22228;53.222;7.446;2022-11-27T01:54:26;20.23;;;9.83;;
36185;SDS011;22228;53.222;7.446;2022-11-27T01:56:51;17.13;;;9.70;;
36185;SDS011;22228;53.222;7.446;2022-11-27T01:59:14;23.80;;;10.27;;
36185;SDS011;22228;53.222;7.446;2022-11-27T02:01:36;18.43;;;10.10;;
36185;SDS011;22228;53.222;7.446;2022-11-27T02:03:57;20.40;;;10.23;;
36185;SDS011;22228;53.222;7.446;2022-11-27T02:06:19;17.17;;;8.97;;
36185;SDS011;22228;53.222;7.446;2022-11-27T02:08:40;22.30;;;10.23;;
36185;SDS011;22228;53.222;7.446;2022-11-27T02:11:01;15.73;;;9.23;;
36185;SDS011;22228;53.222;7.446;2022-11-27T02:13:28;18.40;;;10.63;;
36185;SDS011;22228;53.222;7.446;2022-11-27T02:15:55;17.70;;;10.20;;
36185;SDS011;22228;53.222;7.446;2022-11-27T02:18:24;19.60;;;10.37;;
36185;SDS011;22228;53.222;7.446;2022-11-27T02:20:50;27.30;;;11.30;;
36185;SDS011;22228;53.222;7.446;2022-11-27T02:23:22;18.83;;;10.80;;
36185;SDS011;22228;53.222;7.446;2022-11-27T02:25:59;25.57;;;11.60;;
36185;SDS011;22228;53.222;7.446;2022-11-27T02:28:37;19.73;;;10.87;;
36185;SDS011;22228;53.222;7.446;2022-11-27T02:31:10;18.20;;;10.80;;
36185;SDS011;22228;53.222;7.446;2022-11-27T02:33:34;20.87;;;11.87;;
36185;SDS011;22228;53.222;7.446;2022-11-27T02:36:01;24.23;;;11.63;;
36185;SDS011;22228;53.222;7.446;2022-11-27T02:38:26;20.90;;;10.07;;
36185;SDS011;22228;53.222;7.446;2022-11-27T02:40:53;20.53;;;10.30;;
36185;SDS011;22228;53.222;7.446;2022-11-27T02:43:17;19.93;;;10.63;;
36185;SDS011;22228;53.222;7.446;2022-11-27T02:45:42;17.33;;;10.87;;
36185;SDS011;22228;53.222;7.446;2022-11-27T02:48:05;21.20;;;10.70;;
36185;SDS011;22228;53.222;7.446;2022-11-27T02:50:27;24.10;;;11.53;;
36185;SDS011;22228;53.222;7.446;2022-11-27T02:52:52;23.37;;;11.47;;
36185;SDS011;22228;53.222;7.446;2022-11-27T02:55:17;21.87;;;11.30;;
36185;SDS011;22228;53.222;7.446;2022-11-27T02:57:42;21.47;;;11.03;;
36185;SDS011;22228;53.222;7.446;2022-11-27T03:00:04;14.93;;;9.47;;
36185;SDS011;22228;53.222;7.446;2022-11-27T03:02:28;24.00;;;10.83;;
36185;SDS011;22228;53.222;7.446;2022-11-27T03:04:54;22.77;;;11.07;;
36185;SDS011;22228;53.222;7.446;2022-11-27T03:07:18;25.50;;;10.33;;
36185;SDS011;22228;53.222;7.446;2022-11-27T03:09:50;18.97;;;10.27;;
36185;SDS011;22228;53.222;7.446;2022-11-27T03:12:14;23.33;;;11.03;;
36185;SDS011;22228;53.222;7.446;2022-11-27T03:14:37;21.27;;;10.23;;
36185;SDS011;22228;53.222;7.446;2022-11-27T03:17:00;20.60;;;11.10;;
36185;SDS011;22228;53.222;7.446;2022-11-27T03:19:29;23.53;;;11.37;;
36185;SDS011;22228;53.222;7.446;2022-11-27T03:21:56;22.03;;;11.27;;
36185;SDS011;22228;53.222;7.446;2022-11-27T03:24:18;27.03;;;12.33;;
36185;SDS011;22228;53.222;7.446;2022-11-27T03:26:39;20.00;;;10.93;;
36185;SDS011;22228;53.222;7.446;2022-11-27T03:29:01;20.23;;;11.50;;
36185;SDS011;22228;53.222;7.446;2022-11-27T03:31:24;19.40;;;11.23;;
36185;SDS011;22228;53.222;7.446;2022-11-27T03:36:29;22.77;;;11.00;;
36185;SDS011;22228;53.222;7.446;2022-11-27T03:38:49;19.90;;;10.83;;
36185;SDS011;22228;53.222;7.446;2022-11-27T03:41:14;21.33;;;10.50;;
36185;SDS011;22228;53.222;7.446;2022-11-27T03:43:41;23.80;;;10.60;;
36185;SDS011;22228;53.222;7.446;2022-11-27T03:46:07;21.10;;;11.27;;
36185;SDS011;22228;53.222;7.446;2022-11-27T03:48:34;22.93;;;11.13;;
36185;SDS011;22228;53.222;7.446;2022-11-27T03:51:00;21.47;;;10.67;;
36185;SDS011;22228;53.222;7.446;2022-11-27T03:53:29;19.30;;;10.53;;
36185;SDS011;22228;53.222;7.446;2022-11-27T03:55:58;20.43;;;10.10;;
36185;SDS011;22228;53.222;7.446;2022-11-27T03:58:22;17.27;;;10.27;;
36185;SDS011;22228;53.222;7.446;2022-11-27T04:00:50;21.00;;;11.30;;
36185;SDS011;22228;53.222;7.446;2022-11-27T04:03:12;24.47;;;11.37;;
36185;SDS011;22228;53.222;7.446;2022-11-27T04:05:33;19.40;;;10.53;;
36185;SDS011;22228;53.222;7.446;2022-11-27T04:07:53;19.63;;;11.87;;
36185;SDS011;22228;53.222;7.446;2022-11-27T04:10:16;18.70;;;10.27;;
36185;SDS011;22228;53.222;7.446;2022-11-27T04:12:37;23.07;;;10.97;;
36185;SDS011;22228;53.222;7.446;2022-11-27T04:14:57;18.40;;;10.07;;
36185;SDS011;22228;53.222;7.446;2022-11-27T04:17:18;20.00;;;10.17;;
36185;SDS011;22228;53.222;7.446;2022-11-27T04:19:39;22.30;;;10.77;;
36185;SDS011;22228;53.222;7.446;2022-11-27T04:22:00;17.73;;;9.60;;
36185;SDS011;22228;53.222;7.446;2022-11-27T04:24:20;23.30;;;10.37;;
36185;SDS011;22228;53.222;7.446;2022-11-27T04:26:42;19.30;;;10.37;;
36185;SDS011;22228;53.222;7.446;2022-11-27T04:29:03;20.53;;;10.47;;
36185;SDS011;22228;53.222;7.446;2022-11-27T04:31:23;21.87;;;10.00;;
36185;SDS011;22228;53.222;7.446;2022-11-27T04:33:44;23.63;;;9.20;;
36185;SDS011;22228;53.222;7.446;2022-11-27T04:36:05;16.47;;;9.00;;
36185;SDS011;22228;53.222;7.446;2022-11-27T04:38:26;20.87;;;10.33;;
36185;SDS011;22228;53.222;7.446;2022-11-27T04:40:46;18.07;;;9.07;;
36185;SDS011;22228;53.222;7.446;2022-11-27T04:43:08;17.77;;;9.30;;
36185;SDS011;22228;53.222;7.446;2022-11-27T04:45:29;23.70;;;9.80;;
36185;SDS011;22228;53.222;7.446;2022-11-27T04:47:50;20.53;;;9.93;;
36185;SDS011;22228;53.222;7.446;2022-11-27T04:50:10;25.10;;;11.10;;
36185;SDS011;22228;53.222;7.446;2022-11-27T04:52:31;18.47;;;9.70;;
36185;SDS011;22228;53.222;7.446;2022-11-27T04:54:52;17.57;;;9.47;;
36185;SDS011;22228;53.222;7.446;2022-11-27T04:57:12;19.30;;;9.67;;
36185;SDS011;22228;53.222;7.446;2022-11-27T04:59:34;19.50;;;9.70;;
36185;SDS011;22228;53.222;7.446;2022-11-27T05:01:55;19.93;;;9.17;;
36185;SDS011;22228;53.222;7.446;2022-11-27T05:04:16;22.13;;;9.77;;
36185;SDS011;22228;53.222;7.446;2022-11-27T05:06:36;16.40;;;9.10;;
36185;SDS011;22228;53.222;7.446;2022-11-27T05:08:57;15.77;;;9.63;;
36185;SDS011;22228;53.222;7.446;2022-11-27T05:11:19;21.33;;;10.07;;
36185;SDS011;22228;53.222;7.446;2022-11-27T05:13:40;15.53;;;9.33;;
36185;SDS011;22228;53.222;7.446;2022-11-27T05:16:03;20.57;;;9.67;;
36185;SDS011;22228;53.222;7.446;2022-11-27T05:18:24;17.33;;;8.93;;
36185;SDS011;22228;53.222;7.446;2022-11-27T05:20:45;17.60;;;9.10;;
36185;SDS011;22228;53.222;7.446;2022-11-27T05:23:05;16.73;;;9.07;;
36185;SDS011;22228;53.222;7.446;2022-11-27T05:25:26;20.77;;;10.30;;
36185;SDS011;22228;53.222;7.446;2022-11-27T05:27:47;20.73;;;9.53;;
36185;SDS011;22228;53.222;7.446;2022-11-27T05:30:07;18.77;;;9.70;;
36185;SDS011;22228;53.222;7.446;2022-11-27T05:32:29;17.87;;;9.73;;
36185;SDS011;22228;53.222;7.446;2022-11-27T05:34:50;19.27;;;10.03;;
36185;SDS011;22228;53.222;7.446;2022-11-27T05:37:10;24.47;;;9.70;;
36185;SDS011;22228;53.222;7.446;2022-11-27T05:39:31;13.83;;;9.40;;
36185;SDS011;22228;53.222;7.446;2022-11-27T05:41:52;19.03;;;9.57;;
36185;SDS011;22228;53.222;7.446;2022-11-27T05:44:12;20.30;;;10.03;;
36185;SDS011;22228;53.222;7.446;2022-11-27T05:46:34;20.57;;;9.53;;
36185;SDS011;22228;53.222;7.446;2022-11-27T05:48:56;23.17;;;10.63;;
36185;SDS011;22228;53.222;7.446;2022-11-27T05:51:17;17.73;;;9.83;;
36185;SDS011;22228;53.222;7.446;2022-11-27T05:53:38;21.50;;;9.93;;
36185;SDS011;22228;53.222;7.446;2022-11-27T05:55:59;21.10;;;9.83;;
36185;SDS011;22228;53.222;7.446;2022-11-27T05:58:21;19.17;;;10.17;;
36185;SDS011;22228;53.222;7.446;2022-11-27T06:00:41;14.00;;;9.43;;
36185;SDS011;22228;53.222;7.446;2022-11-27T06:03:02;14.70;;;9.40;;
36185;SDS011;22228;53.222;7.446;2022-11-27T06:05:24;14.10;;;8.97;;
36185;SDS011;22228;53.222;7.446;2022-11-27T06:07:45;15.90;;;8.83;;
36185;SDS011;22228;53.222;7.446;2022-11-27T06:10:06;14.17;;;8.90;;
36185;SDS011;22228;53.222;7.446;2022-11-27T06:12:27;15.00;;;9.30;;
36185;SDS011;22228;53.222;7.446;2022-11-27T06:14:52;14.77;;;8.70;;
36185;SDS011;22228;53.222;7.446;2022-11-27T06:17:12;16.77;;;10.17;;
36185;SDS011;22228;53.222;7.446;2022-11-27T06:19:34;17.30;;;9.10;;
36185;SDS011;22228;53.222;7.446;2022-11-27T06:21:56;13.77;;;8.90;;
36185;SDS011;22228;53.222;7.446;2022-11-27T06:24:16;14.13;;;9.23;;
36185;SDS011;22228;53.222;7.446;2022-11-27T06:26:37;20.37;;;8.50;;
36185;SDS011;22228;53.222;7.446;2022-11-27T06:28:58;16.67;;;8.33;;
36185;SDS011;22228;53.222;7.446;2022-11-27T06:31:20;14.53;;;8.67;;
36185;SDS011;22228;53.222;7.446;2022-11-27T06:33:41;16.70;;;8.20;;
36185;SDS011;22228;53.222;7.446;2022-11-27T06:36:02;14.03;;;8.30;;
36185;SDS011;22228;53.222;7.446;2022-11-27T06:38:25;16.17;;;8.87;;
36185;SDS011;22228;53.222;7.446;2022-11-27T06:40:46;17.57;;;9.23;;
36185;SDS011;22228;53.222;7.446;2022-11-27T06:43:06;15.27;;;9.10;;
36185;SDS011;22228;53.222;7.446;2022-11-27T06:45:27;13.30;;;8.77;;
36185;SDS011;22228;53.222;7.446;2022-11-27T06:47:47;13.17;;;8.67;;
36185;SDS011;22228;53.222;7.446;2022-11-27T06:50:09;12.77;;;8.97;;
36185;SDS011;22228;53.222;7.446;2022-11-27T06:52:30;15.47;;;9.37;;
36185;SDS011;22228;53.222;7.446;2022-11-27T06:54:52;15.10;;;9.13;;
36185;SDS011;22228;53.222;7.446;2022-11-27T06:57:12;14.60;;;9.07;;
36185;SDS011;22228;53.222;7.446;2022-11-27T06:59:33;15.67;;;9.30;;
36185;SDS011;22228;53.222;7.446;2022-11-27T07:01:53;18.93;;;10.13;;
36185;SDS011;22228;53.222;7.446;2022-11-27T07:04:14;15.87;;;8.87;;
36185;SDS011;22228;53.222;7.446;2022-11-27T07:06:35;16.07;;;9.73;;
36185;SDS011;22228;53.222;7.446;2022-11-27T07:08:56;13.17;;;9.43;;
36185;SDS011;22228;53.222;7.446;2022-11-27T07:11:18;14.17;;;8.77;;
36185;SDS011;22228;53.222;7.446;2022-11-27T07:13:40;17.00;;;9.80;;
36185;SDS011;22228;53.222;7.446;2022-11-27T07:16:02;19.77;;;8.97;;
36185;SDS011;22228;53.222;7.446;2022-11-27T07:18:23;20.00;;;9.47;;
36185;SDS011;22228;53.222;7.446;2022-11-27T07:20:49;15.30;;;8.90;;
36185;SDS011;22228;53.222;7.446;2022-11-27T07:23:10;16.90;;;9.53;;
36185;SDS011;22228;53.222;7.446;2022-11-27T07:25:30;15.53;;;9.23;;
36185;SDS011;22228;53.222;7.446;2022-11-27T07:27:53;21.37;;;9.30;;
36185;SDS011;22228;53.222;7.446;2022-11-27T07:30:16;19.33;;;9.17;;
36185;SDS011;22228;53.222;7.446;2022-11-27T07:32:37;15.77;;;8.77;;
36185;SDS011;22228;53.222;7.446;2022-11-27T07:34:59;13.60;;;8.80;;
36185;SDS011;22228;53.222;7.446;2022-11-27T07:37:20;16.90;;;8.03;;
36185;SDS011;22228;53.222;7.446;2022-11-27T07:39:41;14.40;;;8.53;;
36185;SDS011;22228;53.222;7.446;2022-11-27T07:42:01;13.47;;;9.10;;
36185;SDS011;22228;53.222;7.446;2022-11-27T07:44:23;14.77;;;8.83;;
36185;SDS011;22228;53.222;7.446;2022-11-27T07:46:43;12.17;;;8.33;;
36185;SDS011;22228;53.222;7.446;2022-11-27T07:49:04;12.83;;;8.23;;
36185;SDS011;22228;53.222;7.446;2022-11-27T07:51:25;15.70;;;9.73;;
36185;SDS011;22228;53.222;7.446;2022-11-27T07:53:48;13.40;;;8.47;;
36185;SDS011;22228;53.222;7.446;2022-11-27T07:56:11;15.30;;;9.57;;
36185;SDS011;22228;53.222;7.446;2022-11-27T07:58:33;14.83;;;8.80;;
36185;SDS011;22228;53.222;7.446;2022-11-27T08:00:55;16.40;;;9.10;;
36185;SDS011;22228;53.222;7.446;2022-11-27T08:03:15;13.23;;;8.90;;
36185;SDS011;22228;53.222;7.446;2022-11-27T08:05:35;15.73;;;9.53;;
36185;SDS011;22228;53.222;7.446;2022-11-27T08:07:58;15.03;;;9.03;;
36185;SDS011;22228;53.222;7.446;2022-11-27T08:10:19;13.47;;;8.97;;
36185;SDS011;22228;53.222;7.446;2022-11-27T08:12:39;13.30;;;8.83;;
36185;SDS011;22228;53.222;7.446;2022-11-27T08:15:00;14.70;;;9.13;;
36185;SDS011;22228;53.222;7.446;2022-11-27T08:17:24;11.87;;;8.93;;
36185;SDS011;22228;53.222;7.446;2022-11-27T08:19:48;13.63;;;8.77;;
36185;SDS011;22228;53.222;7.446;2022-11-27T08:22:10;17.23;;;9.50;;
36185;SDS011;22228;53.222;7.446;2022-11-27T08:24:33;13.20;;;9.70;;
36185;SDS011;22228;53.222;7.446;2022-11-27T08:26:56;15.03;;;9.33;;
36185;SDS011;22228;53.222;7.446;2022-11-27T08:29:20;12.47;;;9.17;;
36185;SDS011;22228;53.222;7.446;2022-11-27T08:31:52;13.27;;;9.97;;
36185;SDS011;22228;53.222;7.446;2022-11-27T08:37:00;14.23;;;10.10;;
36185;SDS011;22228;53.222;7.446;2022-11-27T08:39:41;9.80;;;8.60;;
36185;SDS011;22228;53.222;7.446;2022-11-27T08:42:30;11.40;;;9.03;;
36185;SDS011;22228;53.222;7.446;2022-11-27T08:44:58;13.17;;;9.13;;
36185;SDS011;22228;53.222;7.446;2022-11-27T08:47:19;12.40;;;8.57;;
36185;SDS011;22228;53.222;7.446;2022-11-27T08:49:41;13.90;;;8.80;;
36185;SDS011;22228;53.222;7.446;2022-11-27T08:52:03;11.77;;;8.50;;
36185;SDS011;22228;53.222;7.446;2022-11-27T08:54:23;10.47;;;8.20;;
36185;SDS011;22228;53.222;7.446;2022-11-27T08:56:44;14.20;;;9.70;;
36185;SDS011;22228;53.222;7.446;2022-11-27T08:59:05;12.53;;;8.13;;
36185;SDS011;22228;53.222;7.446;2022-11-27T09:01:26;21.23;;;12.47;;
36185;SDS011;22228;53.222;7.446;2022-11-27T09:03:48;11.13;;;8.33;;
36185;SDS011;22228;53.222;7.446;2022-11-27T09:06:11;9.60;;;8.40;;
36185;SDS011;22228;53.222;7.446;2022-11-27T09:08:33;8.70;;;6.93;;
36185;SDS011;22228;53.222;7.446;2022-11-27T09:10:57;10.27;;;7.87;;
36185;SDS011;22228;53.222;7.446;2022-11-27T09:13:19;15.27;;;8.17;;
36185;SDS011;22228;53.222;7.446;2022-11-27T09:15:39;9.80;;;7.90;;
36185;SDS011;22228;53.222;7.446;2022-11-27T09:18:00;10.90;;;7.10;;
36185;SDS011;22228;53.222;7.446;2022-11-27T09:20:21;8.77;;;7.33;;
36185;SDS011;22228;53.222;7.446;2022-11-27T09:22:43;11.23;;;7.17;;
36185;SDS011;22228;53.222;7.446;2022-11-27T09:25:04;8.40;;;7.10;;
36185;SDS011;22228;53.222;7.446;2022-11-27T09:27:25;10.33;;;7.17;;
36185;SDS011;22228;53.222;7.446;2022-11-27T09:29:46;7.93;;;6.80;;
36185;SDS011;22228;53.222;7.446;2022-11-27T09:32:07;13.63;;;6.83;;
36185;SDS011;22228;53.222;7.446;2022-11-27T09:34:28;8.10;;;6.93;;
36185;SDS011;22228;53.222;7.446;2022-11-27T09:36:48;10.43;;;7.17;;
36185;SDS011;22228;53.222;7.446;2022-11-27T09:39:10;12.80;;;7.27;;
36185;SDS011;22228;53.222;7.446;2022-11-27T09:41:41;10.83;;;7.23;;
36185;SDS011;22228;53.222;7.446;2022-11-27T09:44:05;10.73;;;7.40;;
36185;SDS011;22228;53.222;7.446;2022-11-27T09:46:41;11.07;;;6.77;;
36185;SDS011;22228;53.222;7.446;2022-11-27T09:49:03;10.70;;;7.40;;
36185;SDS011;22228;53.222;7.446;2022-11-27T09:51:27;9.67;;;7.37;;
36185;SDS011;22228;53.222;7.446;2022-11-27T09:53:54;12.33;;;7.50;;
36185;SDS011;22228;53.222;7.446;2022-11-27T09:56:20;8.63;;;6.70;;
36185;SDS011;22228;53.222;7.446;2022-11-27T09:58:42;10.07;;;7.40;;
36185;SDS011;22228;53.222;7.446;2022-11-27T10:01:09;10.70;;;6.37;;
36185;SDS011;22228;53.222;7.446;2022-11-27T10:03:31;9.23;;;6.70;;
36185;SDS011;22228;53.222;7.446;2022-11-27T10:05:55;9.27;;;6.83;;
36185;SDS011;22228;53.222;7.446;2022-11-27T10:08:25;12.80;;;5.97;;
36185;SDS011;22228;53.222;7.446;2022-11-27T10:10:55;13.03;;;6.97;;
36185;SDS011;22228;53.222;7.446;2022-11-27T10:13:34;8.50;;;6.33;;
36185;SDS011;22228;53.222;7.446;2022-11-27T10:16:05;9.23;;;7.13;;
36185;SDS011;22228;53.222;7.446;2022-11-27T10:18:35;10.70;;;6.60;;
36185;SDS011;22228;53.222;7.446;2022-11-27T10:21:00;8.43;;;6.83;;
36185;SDS011;22228;53.222;7.446;2022-11-27T10:23:30;9.00;;;7.20;;
36185;SDS011;22228;53.222;7.446;2022-11-27T10:26:00;11.70;;;7.47;;
36185;SDS011;22228;53.222;7.446;2022-11-27T10:28:27;8.53;;;6.97;;
36185;SDS011;22228;53.222;7.446;2022-11-27T10:30:57;9.13;;;6.57;;
36185;SDS011;22228;53.222;7.446;2022-11-27T10:33:22;10.07;;;6.47;;
36185;SDS011;22228;53.222;7.446;2022-11-27T10:35:46;7.80;;;6.20;;
36185;SDS011;22228;53.222;7.446;2022-11-27T10:38:09;12.67;;;7.00;;
36185;SDS011;22228;53.222;7.446;2022-11-27T10:40:35;9.77;;;7.13;;
36185;SDS011;22228;53.222;7.446;2022-11-27T10:43:01;9.73;;;6.53;;
36185;SDS011;22228;53.222;7.446;2022-11-27T10:45:28;10.40;;;6.40;;
36185;SDS011;22228;53.222;7.446;2022-11-27T10:47:59;9.37;;;6.53;;
36185;SDS011;22228;53.222;7.446;2022-11-27T10:50:19;8.40;;;6.60;;
36185;SDS011;22228;53.222;7.446;2022-11-27T10:52:43;9.00;;;6.60;;
36185;SDS011;22228;53.222;7.446;2022-11-27T10:55:11;14.10;;;7.37;;
36185;SDS011;22228;53.222;7.446;2022-11-27T10:57:47;19.97;;;12.30;;
36185;SDS011;22228;53.222;7.446;2022-11-27T11:00:18;10.50;;;7.50;;
36185;SDS011;22228;53.222;7.446;2022-11-27T11:02:40;12.23;;;8.20;;
36185;SDS011;22228;53.222;7.446;2022-11-27T11:05:12;10.50;;;7.43;;
36185;SDS011;22228;53.222;7.446;2022-11-27T11:07:40;9.57;;;6.83;;
36185;SDS011;22228;53.222;7.446;2022-11-27T11:10:00;10.73;;;6.90;;
36185;SDS011;22228;53.222;7.446;2022-11-27T11:12:21;12.00;;;7.60;;
36185;SDS011;22228;53.222;7.446;2022-11-27T11:14:48;10.10;;;7.27;;
36185;SDS011;22228;53.222;7.446;2022-11-27T11:17:13;9.83;;;7.30;;
36185;SDS011;22228;53.222;7.446;2022-11-27T11:19:36;15.47;;;8.40;;
36185;SDS011;22228;53.222;7.446;2022-11-27T11:21:58;44.33;;;33.90;;
36185;SDS011;22228;53.222;7.446;2022-11-27T11:24:24;18.23;;;10.97;;
36185;SDS011;22228;53.222;7.446;2022-11-27T11:26:48;9.87;;;7.30;;
36185;SDS011;22228;53.222;7.446;2022-11-27T11:29:16;14.70;;;8.53;;
36185;SDS011;22228;53.222;7.446;2022-11-27T11:31:45;10.97;;;7.50;;
36185;SDS011;22228;53.222;7.446;2022-11-27T11:34:12;10.13;;;7.47;;
36185;SDS011;22228;53.222;7.446;2022-11-27T11:36:38;11.97;;;7.67;;
36185;SDS011;22228;53.222;7.446;2022-11-27T11:39:00;12.07;;;7.63;;
36185;SDS011;22228;53.222;7.446;2022-11-27T11:41:21;15.43;;;7.70;;
36185;SDS011;22228;53.222;7.446;2022-11-27T11:43:51;11.07;;;7.80;;
36185;SDS011;22228;53.222;7.446;2022-11-27T11:46:16;13.13;;;7.97;;
36185;SDS011;22228;53.222;7.446;2022-11-27T11:48:40;12.27;;;7.47;;
36185;SDS011;22228;53.222;7.446;2022-11-27T11:51:13;15.00;;;8.93;;
36185;SDS011;22228;53.222;7.446;2022-11-27T11:53:40;12.60;;;7.93;;
36185;SDS011;22228;53.222;7.446;2022-11-27T11:56:08;12.43;;;8.50;;
36185;SDS011;22228;53.222;7.446;2022-11-27T11:58:42;15.83;;;8.23;;
36185;SDS011;22228;53.222;7.446;2022-11-27T12:01:16;11.10;;;7.70;;
36185;SDS011;22228;53.222;7.446;2022-11-27T12:03:51;11.00;;;8.60;;
36185;SDS011;22228;53.222;7.446;2022-11-27T12:06:27;11.63;;;8.13;;
36185;SDS011;22228;53.222;7.446;2022-11-27T12:08:58;16.60;;;10.87;;
36185;SDS011;22228;53.222;7.446;2022-11-27T12:11:37;11.23;;;7.90;;
36185;SDS011;22228;53.222;7.446;2022-11-27T12:14:11;15.00;;;8.77;;
36185;SDS011;22228;53.222;7.446;2022-11-27T12:16:41;10.10;;;8.20;;
36185;SDS011;22228;53.222;7.446;2022-11-27T12:19:20;17.50;;;11.50;;
36185;SDS011;22228;53.222;7.446;2022-11-27T12:21:50;12.97;;;8.00;;
36185;SDS011;22228;53.222;7.446;2022-11-27T12:24:22;15.73;;;9.33;;
36185;SDS011;22228;53.222;7.446;2022-11-27T12:26:59;14.10;;;9.03;;
36185;SDS011;22228;53.222;7.446;2022-11-27T12:29:35;17.23;;;9.30;;
36185;SDS011;22228;53.222;7.446;2022-11-27T12:32:19;12.57;;;9.73;;
36185;SDS011;22228;53.222;7.446;2022-11-27T12:34:57;13.23;;;9.80;;
36185;SDS011;22228;53.222;7.446;2022-11-27T12:37:31;12.00;;;9.70;;
36185;SDS011;22228;53.222;7.446;2022-11-27T12:40:11;12.40;;;9.03;;
36185;SDS011;22228;53.222;7.446;2022-11-27T12:42:46;18.53;;;9.77;;
36185;SDS011;22228;53.222;7.446;2022-11-27T12:45:16;13.30;;;8.83;;
36185;SDS011;22228;53.222;7.446;2022-11-27T12:47:39;12.87;;;9.30;;
36185;SDS011;22228;53.222;7.446;2022-11-27T12:50:02;10.47;;;9.03;;
36185;SDS011;22228;53.222;7.446;2022-11-27T12:52:28;11.10;;;9.90;;
36185;SDS011;22228;53.222;7.446;2022-11-27T12:54:53;13.83;;;10.20;;
36185;SDS011;22228;53.222;7.446;2022-11-27T12:57:17;17.50;;;10.67;;
36185;SDS011;22228;53.222;7.446;2022-11-27T12:59:42;14.03;;;9.37;;
36185;SDS011;22228;53.222;7.446;2022-11-27T13:02:11;14.27;;;10.00;;
36185;SDS011;22228;53.222;7.446;2022-11-27T13:04:44;14.43;;;10.60;;
36185;SDS011;22228;53.222;7.446;2022-11-27T13:07:10;16.03;;;10.53;;
36185;SDS011;22228;53.222;7.446;2022-11-27T13:09:36;13.20;;;9.37;;
36185;SDS011;22228;53.222;7.446;2022-11-27T13:12:03;12.53;;;9.50;;
36185;SDS011;22228;53.222;7.446;2022-11-27T13:14:24;14.23;;;9.97;;
36185;SDS011;22228;53.222;7.446;2022-11-27T13:16:49;16.20;;;10.10;;
36185;SDS011;22228;53.222;7.446;2022-11-27T13:19:13;13.87;;;9.43;;
36185;SDS011;22228;53.222;7.446;2022-11-27T13:21:38;10.27;;;9.07;;
36185;SDS011;22228;53.222;7.446;2022-11-27T13:23:59;16.50;;;10.23;;
36185;SDS011;22228;53.222;7.446;2022-11-27T13:26:22;12.07;;;9.17;;
36185;SDS011;22228;53.222;7.446;2022-11-27T13:28:48;14.80;;;10.30;;
36185;SDS011;22228;53.222;7.446;2022-11-27T13:31:13;14.80;;;10.20;;
36185;SDS011;22228;53.222;7.446;2022-11-27T13:33:40;13.37;;;10.27;;
36185;SDS011;22228;53.222;7.446;2022-11-27T13:36:03;14.83;;;10.93;;
36185;SDS011;22228;53.222;7.446;2022-11-27T13:38:26;19.07;;;11.10;;
36185;SDS011;22228;53.222;7.446;2022-11-27T13:40:47;15.63;;;11.00;;
36185;SDS011;22228;53.222;7.446;2022-11-27T13:43:15;16.27;;;11.07;;
36185;SDS011;22228;53.222;7.446;2022-11-27T13:45:41;16.63;;;10.83;;
36185;SDS011;22228;53.222;7.446;2022-11-27T13:48:04;17.27;;;11.33;;
36185;SDS011;22228;53.222;7.446;2022-11-27T13:50:47;15.03;;;11.33;;
36185;SDS011;22228;53.222;7.446;2022-11-27T13:53:07;15.53;;;10.83;;
36185;SDS011;22228;53.222;7.446;2022-11-27T13:55:31;18.07;;;11.67;;
36185;SDS011;22228;53.222;7.446;2022-11-27T13:57:53;16.47;;;11.97;;
36185;SDS011;22228;53.222;7.446;2022-11-27T14:00:15;19.30;;;12.67;;
36185;SDS011;22228;53.222;7.446;2022-11-27T14:02:40;16.43;;;11.63;;
36185;SDS011;22228;53.222;7.446;2022-11-27T14:05:02;14.73;;;11.77;;
36185;SDS011;22228;53.222;7.446;2022-11-27T14:07:32;17.00;;;11.83;;
36185;SDS011;22228;53.222;7.446;2022-11-27T14:09:55;22.50;;;11.83;;
36185;SDS011;22228;53.222;7.446;2022-11-27T14:12:28;16.50;;;11.57;;
36185;SDS011;22228;53.222;7.446;2022-11-27T14:14:59;15.40;;;10.80;;
36185;SDS011;22228;53.222;7.446;2022-11-27T14:17:23;20.93;;;11.43;;